sensor_id;sensor_type;location;lat;lon;timestamp;P1;durP1;ratioP1;P2;durP2;ratioP2
60996;SDS011;46877;55.054;73.306;2022-07-06T00:01:44;2.75;;;0.93;;
60996;SDS011;46877;55.054;73.306;2022-07-06T00:04:10;1.85;;;0.80;;
60996;SDS011;46877;55.054;73.306;2022-07-06T00:06:38;1.33;;;0.65;;
60996;SDS011;46877;55.054;73.306;2022-07-06T00:09:14;2.75;;;1.00;;
60996;SDS011;46877;55.054;73.306;2022-07-06T00:11:45;2.20;;;0.80;;
60996;SDS011;46877;55.054;73.306;2022-07-06T00:14:11;2.40;;;0.90;;
60996;SDS011;46877;55.054;73.306;2022-07-06T00:16:38;1.60;;;0.75;;
60996;SDS011;46877;55.054;73.306;2022-07-06T00:19:09;1.42;;;0.77;;
60996;SDS011;46877;55.054;73.306;2022-07-06T00:21:45;1.52;;;0.68;;
60996;SDS011;46877;55.054;73.306;2022-07-06T00:24:11;1.67;;;0.80;;
60996;SDS011;46877;55.054;73.306;2022-07-06T00:26:37;1.83;;;0.75;;
60996;SDS011;46877;55.054;73.306;2022-07-06T00:29:08;1.88;;;0.77;;
60996;SDS011;46877;55.054;73.306;2022-07-06T00:31:34;1.85;;;0.70;;
60996;SDS011;46877;55.054;73.306;2022-07-06T00:34:01;1.98;;;0.88;;
60996;SDS011;46877;55.054;73.306;2022-07-06T00:36:27;2.45;;;0.57;;
60996;SDS011;46877;55.054;73.306;2022-07-06T00:39:03;2.17;;;0.80;;
60996;SDS011;46877;55.054;73.306;2022-07-06T00:41:35;1.95;;;0.88;;
60996;SDS011;46877;55.054;73.306;2022-07-06T00:44:06;2.40;;;0.90;;
60996;SDS011;46877;55.054;73.306;2022-07-06T00:46:43;1.08;;;0.60;;
60996;SDS011;46877;55.054;73.306;2022-07-06T00:49:19;1.77;;;0.90;;
60996;SDS011;46877;55.054;73.306;2022-07-06T00:52:04;1.20;;;0.70;;
60996;SDS011;46877;55.054;73.306;2022-07-06T00:54:31;2.60;;;0.90;;
60996;SDS011;46877;55.054;73.306;2022-07-06T00:56:57;2.60;;;0.82;;
60996;SDS011;46877;55.054;73.306;2022-07-06T00:59:28;1.70;;;0.73;;
60996;SDS011;46877;55.054;73.306;2022-07-06T01:01:54;2.33;;;0.95;;
60996;SDS011;46877;55.054;73.306;2022-07-06T01:04:20;1.70;;;0.90;;
60996;SDS011;46877;55.054;73.306;2022-07-06T01:06:56;1.30;;;0.80;;
60996;SDS011;46877;55.054;73.306;2022-07-06T01:09:23;1.35;;;0.70;;
60996;SDS011;46877;55.054;73.306;2022-07-06T01:11:49;1.73;;;1.00;;
60996;SDS011;46877;55.054;73.306;2022-07-06T01:14:15;2.05;;;0.85;;
60996;SDS011;46877;55.054;73.306;2022-07-06T01:16:48;2.43;;;0.90;;
60996;SDS011;46877;55.054;73.306;2022-07-06T01:19:14;2.88;;;0.80;;
60996;SDS011;46877;55.054;73.306;2022-07-06T01:21:50;1.90;;;1.00;;
60996;SDS011;46877;55.054;73.306;2022-07-06T01:24:18;2.65;;;1.23;;
60996;SDS011;46877;55.054;73.306;2022-07-06T01:26:44;2.40;;;0.98;;
60996;SDS011;46877;55.054;73.306;2022-07-06T01:29:17;2.42;;;1.20;;
60996;SDS011;46877;55.054;73.306;2022-07-06T01:31:47;2.50;;;1.20;;
60996;SDS011;46877;55.054;73.306;2022-07-06T01:34:19;3.60;;;1.67;;
60996;SDS011;46877;55.054;73.306;2022-07-06T01:36:50;2.70;;;1.40;;
60996;SDS011;46877;55.054;73.306;2022-07-06T01:39:18;2.25;;;1.40;;
60996;SDS011;46877;55.054;73.306;2022-07-06T01:41:44;2.80;;;1.52;;
60996;SDS011;46877;55.054;73.306;2022-07-06T01:44:20;2.25;;;1.23;;
60996;SDS011;46877;55.054;73.306;2022-07-06T01:46:46;2.92;;;1.33;;
60996;SDS011;46877;55.054;73.306;2022-07-06T01:49:12;2.67;;;1.40;;
60996;SDS011;46877;55.054;73.306;2022-07-06T01:51:39;2.88;;;1.92;;
60996;SDS011;46877;55.054;73.306;2022-07-06T01:54:05;3.03;;;1.90;;
60996;SDS011;46877;55.054;73.306;2022-07-06T01:56:32;2.83;;;1.67;;
60996;SDS011;46877;55.054;73.306;2022-07-06T01:59:11;3.40;;;1.67;;
60996;SDS011;46877;55.054;73.306;2022-07-06T02:04:09;3.10;;;1.60;;
60996;SDS011;46877;55.054;73.306;2022-07-06T02:06:35;3.58;;;1.90;;
60996;SDS011;46877;55.054;73.306;2022-07-06T02:09:01;4.15;;;2.28;;
60996;SDS011;46877;55.054;73.306;2022-07-06T02:11:27;3.55;;;2.08;;
60996;SDS011;46877;55.054;73.306;2022-07-06T02:13:58;2.95;;;1.80;;
60996;SDS011;46877;55.054;73.306;2022-07-06T02:16:24;3.25;;;1.70;;
60996;SDS011;46877;55.054;73.306;2022-07-06T02:18:59;3.08;;;1.70;;
60996;SDS011;46877;55.054;73.306;2022-07-06T02:21:32;4.38;;;2.20;;
60996;SDS011;46877;55.054;73.306;2022-07-06T02:24:51;3.15;;;1.60;;
60996;SDS011;46877;55.054;73.306;2022-07-06T02:27:28;3.97;;;2.22;;
60996;SDS011;46877;55.054;73.306;2022-07-06T02:29:54;4.10;;;2.47;;
60996;SDS011;46877;55.054;73.306;2022-07-06T02:32:25;3.42;;;2.25;;
60996;SDS011;46877;55.054;73.306;2022-07-06T02:34:52;3.72;;;2.05;;
60996;SDS011;46877;55.054;73.306;2022-07-06T02:37:19;3.70;;;2.25;;
60996;SDS011;46877;55.054;73.306;2022-07-06T02:39:45;3.85;;;2.30;;
60996;SDS011;46877;55.054;73.306;2022-07-06T02:42:11;3.90;;;2.20;;
60996;SDS011;46877;55.054;73.306;2022-07-06T02:44:47;2.78;;;1.65;;
60996;SDS011;46877;55.054;73.306;2022-07-06T02:47:30;3.22;;;1.80;;
60996;SDS011;46877;55.054;73.306;2022-07-06T02:49:57;3.30;;;2.03;;
60996;SDS011;46877;55.054;73.306;2022-07-06T02:52:23;3.60;;;2.20;;
60996;SDS011;46877;55.054;73.306;2022-07-06T02:55:00;2.80;;;1.92;;
60996;SDS011;46877;55.054;73.306;2022-07-06T02:57:30;3.53;;;2.33;;
60996;SDS011;46877;55.054;73.306;2022-07-06T03:03:19;4.10;;;2.10;;
60996;SDS011;46877;55.054;73.306;2022-07-06T03:05:46;3.80;;;2.20;;
60996;SDS011;46877;55.054;73.306;2022-07-06T03:08:16;3.55;;;2.13;;
60996;SDS011;46877;55.054;73.306;2022-07-06T03:10:42;5.10;;;2.38;;
60996;SDS011;46877;55.054;73.306;2022-07-06T03:13:08;6.47;;;2.92;;
60996;SDS011;46877;55.054;73.306;2022-07-06T03:15:36;3.70;;;2.10;;
60996;SDS011;46877;55.054;73.306;2022-07-06T03:18:02;4.28;;;2.55;;
60996;SDS011;46877;55.054;73.306;2022-07-06T03:20:28;3.53;;;2.13;;
60996;SDS011;46877;55.054;73.306;2022-07-06T03:22:55;4.28;;;2.63;;
60996;SDS011;46877;55.054;73.306;2022-07-06T03:25:22;3.22;;;2.15;;
60996;SDS011;46877;55.054;73.306;2022-07-06T03:27:50;3.65;;;2.28;;
60996;SDS011;46877;55.054;73.306;2022-07-06T03:30:27;3.65;;;2.30;;
60996;SDS011;46877;55.054;73.306;2022-07-06T03:32:58;3.90;;;2.50;;
60996;SDS011;46877;55.054;73.306;2022-07-06T03:35:26;4.82;;;2.85;;
60996;SDS011;46877;55.054;73.306;2022-07-06T03:37:54;3.53;;;2.40;;
60996;SDS011;46877;55.054;73.306;2022-07-06T03:40:23;3.40;;;2.33;;
60996;SDS011;46877;55.054;73.306;2022-07-06T03:42:50;3.28;;;2.25;;
60996;SDS011;46877;55.054;73.306;2022-07-06T03:45:17;3.75;;;2.42;;
60996;SDS011;46877;55.054;73.306;2022-07-06T03:47:43;3.55;;;2.28;;
60996;SDS011;46877;55.054;73.306;2022-07-06T03:50:10;5.18;;;2.33;;
60996;SDS011;46877;55.054;73.306;2022-07-06T03:52:37;3.85;;;2.63;;
60996;SDS011;46877;55.054;73.306;2022-07-06T03:55:08;3.28;;;2.33;;
60996;SDS011;46877;55.054;73.306;2022-07-06T03:57:36;4.43;;;2.40;;
60996;SDS011;46877;55.054;73.306;2022-07-06T04:00:04;2.85;;;2.30;;
60996;SDS011;46877;55.054;73.306;2022-07-06T04:02:40;4.53;;;2.60;;
60996;SDS011;46877;55.054;73.306;2022-07-06T04:05:07;3.90;;;2.28;;
60996;SDS011;46877;55.054;73.306;2022-07-06T04:07:34;2.83;;;2.00;;
60996;SDS011;46877;55.054;73.306;2022-07-06T04:10:00;3.20;;;2.35;;
60996;SDS011;46877;55.054;73.306;2022-07-06T04:12:26;4.70;;;3.20;;
60996;SDS011;46877;55.054;73.306;2022-07-06T04:14:52;3.63;;;2.40;;
60996;SDS011;46877;55.054;73.306;2022-07-06T04:17:21;4.20;;;2.47;;
60996;SDS011;46877;55.054;73.306;2022-07-06T04:20:06;9.75;;;6.18;;
60996;SDS011;46877;55.054;73.306;2022-07-06T04:22:32;10.10;;;6.43;;
60996;SDS011;46877;55.054;73.306;2022-07-06T04:24:59;10.45;;;6.15;;
60996;SDS011;46877;55.054;73.306;2022-07-06T04:27:25;13.27;;;8.15;;
60996;SDS011;46877;55.054;73.306;2022-07-06T04:29:52;12.02;;;8.27;;
60996;SDS011;46877;55.054;73.306;2022-07-06T04:32:28;12.30;;;7.05;;
60996;SDS011;46877;55.054;73.306;2022-07-06T04:34:54;8.32;;;5.45;;
60996;SDS011;46877;55.054;73.306;2022-07-06T04:37:31;14.70;;;8.27;;
60996;SDS011;46877;55.054;73.306;2022-07-06T04:39:57;10.32;;;7.07;;
60996;SDS011;46877;55.054;73.306;2022-07-06T04:42:23;11.00;;;6.10;;
60996;SDS011;46877;55.054;73.306;2022-07-06T04:44:50;12.80;;;8.23;;
60996;SDS011;46877;55.054;73.306;2022-07-06T04:47:17;12.50;;;7.20;;
60996;SDS011;46877;55.054;73.306;2022-07-06T04:49:45;12.77;;;6.45;;
60996;SDS011;46877;55.054;73.306;2022-07-06T04:52:12;13.65;;;6.70;;
60996;SDS011;46877;55.054;73.306;2022-07-06T04:54:38;20.08;;;7.18;;
60996;SDS011;46877;55.054;73.306;2022-07-06T04:57:04;11.27;;;7.25;;
60996;SDS011;46877;55.054;73.306;2022-07-06T04:59:31;14.55;;;8.43;;
60996;SDS011;46877;55.054;73.306;2022-07-06T05:02:04;12.68;;;6.80;;
60996;SDS011;46877;55.054;73.306;2022-07-06T05:04:30;12.05;;;6.55;;
60996;SDS011;46877;55.054;73.306;2022-07-06T05:07:06;13.00;;;7.68;;
60996;SDS011;46877;55.054;73.306;2022-07-06T05:09:32;12.90;;;8.63;;
60996;SDS011;46877;55.054;73.306;2022-07-06T05:11:59;15.73;;;10.30;;
60996;SDS011;46877;55.054;73.306;2022-07-06T05:14:25;11.50;;;8.10;;
60996;SDS011;46877;55.054;73.306;2022-07-06T05:16:53;13.00;;;8.57;;
60996;SDS011;46877;55.054;73.306;2022-07-06T05:19:20;11.93;;;8.02;;
60996;SDS011;46877;55.054;73.306;2022-07-06T05:21:47;14.93;;;9.27;;
60996;SDS011;46877;55.054;73.306;2022-07-06T05:24:14;14.68;;;9.38;;
60996;SDS011;46877;55.054;73.306;2022-07-06T05:26:49;13.80;;;9.80;;
60996;SDS011;46877;55.054;73.306;2022-07-06T05:29:16;14.57;;;9.52;;
60996;SDS011;46877;55.054;73.306;2022-07-06T05:31:44;14.95;;;10.32;;
60996;SDS011;46877;55.054;73.306;2022-07-06T05:34:10;17.58;;;10.45;;
60996;SDS011;46877;55.054;73.306;2022-07-06T05:36:36;13.23;;;9.68;;
60996;SDS011;46877;55.054;73.306;2022-07-06T05:39:03;15.13;;;9.57;;
60996;SDS011;46877;55.054;73.306;2022-07-06T05:41:30;13.77;;;9.35;;
60996;SDS011;46877;55.054;73.306;2022-07-06T05:44:08;16.23;;;9.73;;
60996;SDS011;46877;55.054;73.306;2022-07-06T05:46:34;17.45;;;10.55;;
60996;SDS011;46877;55.054;73.306;2022-07-06T05:49:00;13.00;;;9.82;;
60996;SDS011;46877;55.054;73.306;2022-07-06T05:51:46;15.68;;;9.65;;
60996;SDS011;46877;55.054;73.306;2022-07-06T05:54:12;15.10;;;9.70;;
60996;SDS011;46877;55.054;73.306;2022-07-06T05:56:38;16.13;;;10.18;;
60996;SDS011;46877;55.054;73.306;2022-07-06T05:59:05;13.10;;;9.93;;
60996;SDS011;46877;55.054;73.306;2022-07-06T06:01:31;14.38;;;10.40;;
60996;SDS011;46877;55.054;73.306;2022-07-06T06:04:21;17.50;;;10.65;;
60996;SDS011;46877;55.054;73.306;2022-07-06T06:06:47;15.82;;;11.48;;
60996;SDS011;46877;55.054;73.306;2022-07-06T06:09:15;18.95;;;12.68;;
60996;SDS011;46877;55.054;73.306;2022-07-06T06:11:41;15.45;;;11.20;;
60996;SDS011;46877;55.054;73.306;2022-07-06T06:14:07;13.75;;;10.15;;
60996;SDS011;46877;55.054;73.306;2022-07-06T06:16:34;13.40;;;10.32;;
60996;SDS011;46877;55.054;73.306;2022-07-06T06:19:00;16.93;;;10.37;;
60996;SDS011;46877;55.054;73.306;2022-07-06T06:21:26;14.05;;;10.02;;
60996;SDS011;46877;55.054;73.306;2022-07-06T06:23:52;13.05;;;10.13;;
60996;SDS011;46877;55.054;73.306;2022-07-06T06:26:19;14.85;;;10.20;;
60996;SDS011;46877;55.054;73.306;2022-07-06T06:28:45;12.75;;;10.23;;
60996;SDS011;46877;55.054;73.306;2022-07-06T06:31:11;13.05;;;10.48;;
60996;SDS011;46877;55.054;73.306;2022-07-06T06:33:37;12.93;;;10.63;;
60996;SDS011;46877;55.054;73.306;2022-07-06T06:36:03;13.50;;;10.18;;
60996;SDS011;46877;55.054;73.306;2022-07-06T06:38:29;12.60;;;10.87;;
60996;SDS011;46877;55.054;73.306;2022-07-06T06:40:55;11.55;;;9.43;;
60996;SDS011;46877;55.054;73.306;2022-07-06T06:43:21;13.00;;;10.68;;
60996;SDS011;46877;55.054;73.306;2022-07-06T06:45:58;14.98;;;9.85;;
60996;SDS011;46877;55.054;73.306;2022-07-06T06:48:25;10.66;;;8.90;;
60996;SDS011;46877;55.054;73.306;2022-07-06T06:50:52;13.13;;;9.75;;
60996;SDS011;46877;55.054;73.306;2022-07-06T06:53:18;11.23;;;8.75;;
60996;SDS011;46877;55.054;73.306;2022-07-06T06:55:44;13.30;;;8.63;;
60996;SDS011;46877;55.054;73.306;2022-07-06T06:58:10;9.73;;;7.70;;
60996;SDS011;46877;55.054;73.306;2022-07-06T07:00:36;11.15;;;7.47;;
60996;SDS011;46877;55.054;73.306;2022-07-06T07:03:02;14.13;;;8.75;;
60996;SDS011;46877;55.054;73.306;2022-07-06T07:05:36;11.20;;;8.88;;
60996;SDS011;46877;55.054;73.306;2022-07-06T07:08:03;8.73;;;7.00;;
60996;SDS011;46877;55.054;73.306;2022-07-06T07:10:31;11.07;;;7.47;;
60996;SDS011;46877;55.054;73.306;2022-07-06T07:12:58;12.05;;;7.05;;
60996;SDS011;46877;55.054;73.306;2022-07-06T07:15:29;8.50;;;6.60;;
60996;SDS011;46877;55.054;73.306;2022-07-06T07:17:55;8.75;;;7.00;;
60996;SDS011;46877;55.054;73.306;2022-07-06T07:20:22;10.15;;;6.78;;
60996;SDS011;46877;55.054;73.306;2022-07-06T07:22:48;10.35;;;6.97;;
60996;SDS011;46877;55.054;73.306;2022-07-06T07:25:14;7.07;;;6.28;;
60996;SDS011;46877;55.054;73.306;2022-07-06T07:27:41;7.70;;;6.32;;
60996;SDS011;46877;55.054;73.306;2022-07-06T07:30:09;9.13;;;6.40;;
60996;SDS011;46877;55.054;73.306;2022-07-06T07:32:41;7.20;;;6.10;;
60996;SDS011;46877;55.054;73.306;2022-07-06T07:35:12;8.93;;;6.00;;
60996;SDS011;46877;55.054;73.306;2022-07-06T07:37:38;9.30;;;6.15;;
60996;SDS011;46877;55.054;73.306;2022-07-06T07:40:04;8.13;;;5.60;;
60996;SDS011;46877;55.054;73.306;2022-07-06T07:42:31;7.15;;;5.70;;
60996;SDS011;46877;55.054;73.306;2022-07-06T07:44:58;8.38;;;6.13;;
60996;SDS011;46877;55.054;73.306;2022-07-06T07:47:24;7.70;;;6.10;;
60996;SDS011;46877;55.054;73.306;2022-07-06T07:49:55;7.72;;;6.05;;
60996;SDS011;46877;55.054;73.306;2022-07-06T07:52:23;9.32;;;6.38;;
60996;SDS011;46877;55.054;73.306;2022-07-06T07:54:49;7.78;;;6.38;;
60996;SDS011;46877;55.054;73.306;2022-07-06T07:57:15;9.52;;;6.53;;
60996;SDS011;46877;55.054;73.306;2022-07-06T07:59:41;7.68;;;6.28;;
60996;SDS011;46877;55.054;73.306;2022-07-06T08:02:08;7.43;;;5.60;;
60996;SDS011;46877;55.054;73.306;2022-07-06T08:04:39;8.65;;;6.22;;
60996;SDS011;46877;55.054;73.306;2022-07-06T08:07:05;7.55;;;5.63;;
60996;SDS011;46877;55.054;73.306;2022-07-06T08:09:32;7.93;;;6.38;;
60996;SDS011;46877;55.054;73.306;2022-07-06T08:11:58;8.05;;;5.85;;
60996;SDS011;46877;55.054;73.306;2022-07-06T08:14:24;9.32;;;6.15;;
60996;SDS011;46877;55.054;73.306;2022-07-06T08:16:55;7.82;;;6.43;;
60996;SDS011;46877;55.054;73.306;2022-07-06T08:19:21;8.63;;;6.33;;
60996;SDS011;46877;55.054;73.306;2022-07-06T08:21:50;7.60;;;5.68;;
60996;SDS011;46877;55.054;73.306;2022-07-06T08:24:16;8.40;;;5.57;;
60996;SDS011;46877;55.054;73.306;2022-07-06T08:26:42;8.23;;;5.60;;
60996;SDS011;46877;55.054;73.306;2022-07-06T08:29:13;8.07;;;5.60;;
60996;SDS011;46877;55.054;73.306;2022-07-06T08:31:39;8.68;;;5.82;;
60996;SDS011;46877;55.054;73.306;2022-07-06T08:34:05;7.38;;;5.50;;
60996;SDS011;46877;55.054;73.306;2022-07-06T08:36:32;8.05;;;5.57;;
60996;SDS011;46877;55.054;73.306;2022-07-06T08:38:58;7.28;;;5.22;;
60996;SDS011;46877;55.054;73.306;2022-07-06T08:41:28;9.73;;;6.27;;
60996;SDS011;46877;55.054;73.306;2022-07-06T08:43:55;8.50;;;5.85;;
60996;SDS011;46877;55.054;73.306;2022-07-06T08:46:24;8.25;;;5.75;;
60996;SDS011;46877;55.054;73.306;2022-07-06T08:48:50;8.10;;;5.40;;
60996;SDS011;46877;55.054;73.306;2022-07-06T08:51:16;11.27;;;5.72;;
60996;SDS011;46877;55.054;73.306;2022-07-06T08:53:43;8.57;;;5.60;;
60996;SDS011;46877;55.054;73.306;2022-07-06T08:56:09;6.65;;;5.05;;
60996;SDS011;46877;55.054;73.306;2022-07-06T08:58:36;10.80;;;6.03;;
60996;SDS011;46877;55.054;73.306;2022-07-06T09:01:02;9.45;;;5.90;;
60996;SDS011;46877;55.054;73.306;2022-07-06T09:03:36;9.82;;;5.18;;
60996;SDS011;46877;55.054;73.306;2022-07-06T09:06:04;8.43;;;4.57;;
60996;SDS011;46877;55.054;73.306;2022-07-06T09:08:36;10.77;;;4.85;;
60996;SDS011;46877;55.054;73.306;2022-07-06T09:11:03;11.20;;;5.38;;
60996;SDS011;46877;55.054;73.306;2022-07-06T09:13:39;27.30;;;6.05;;
60996;SDS011;46877;55.054;73.306;2022-07-06T09:16:11;7.88;;;4.00;;
60996;SDS011;46877;55.054;73.306;2022-07-06T09:18:38;7.65;;;3.80;;
60996;SDS011;46877;55.054;73.306;2022-07-06T09:21:05;7.90;;;3.88;;
60996;SDS011;46877;55.054;73.306;2022-07-06T09:23:31;8.23;;;4.15;;
60996;SDS011;46877;55.054;73.306;2022-07-06T09:25:57;7.82;;;4.30;;
60996;SDS011;46877;55.054;73.306;2022-07-06T09:28:25;6.07;;;4.53;;
60996;SDS011;46877;55.054;73.306;2022-07-06T09:31:08;6.10;;;4.37;;
60996;SDS011;46877;55.054;73.306;2022-07-06T09:33:34;6.82;;;4.57;;
60996;SDS011;46877;55.054;73.306;2022-07-06T09:36:00;8.27;;;4.68;;
60996;SDS011;46877;55.054;73.306;2022-07-06T09:38:28;7.47;;;4.75;;
60996;SDS011;46877;55.054;73.306;2022-07-06T09:40:54;5.97;;;4.70;;
60996;SDS011;46877;55.054;73.306;2022-07-06T09:43:21;7.78;;;4.65;;
60996;SDS011;46877;55.054;73.306;2022-07-06T09:45:58;8.18;;;4.72;;
60996;SDS011;46877;55.054;73.306;2022-07-06T09:48:27;6.90;;;5.00;;
60996;SDS011;46877;55.054;73.306;2022-07-06T09:50:54;8.43;;;4.80;;
60996;SDS011;46877;55.054;73.306;2022-07-06T09:53:21;6.57;;;5.05;;
60996;SDS011;46877;55.054;73.306;2022-07-06T09:55:57;14.73;;;7.35;;
60996;SDS011;46877;55.054;73.306;2022-07-06T09:58:24;11.80;;;8.25;;
60996;SDS011;46877;55.054;73.306;2022-07-06T10:00:50;10.57;;;8.57;;
60996;SDS011;46877;55.054;73.306;2022-07-06T10:03:17;12.15;;;8.27;;
60996;SDS011;46877;55.054;73.306;2022-07-06T10:05:50;16.90;;;8.77;;
60996;SDS011;46877;55.054;73.306;2022-07-06T10:08:36;12.80;;;7.45;;
60996;SDS011;46877;55.054;73.306;2022-07-06T10:11:03;10.83;;;7.87;;
60996;SDS011;46877;55.054;73.306;2022-07-06T10:13:30;12.52;;;8.45;;
60996;SDS011;46877;55.054;73.306;2022-07-06T10:16:05;11.05;;;7.53;;
60996;SDS011;46877;55.054;73.306;2022-07-06T10:18:32;12.20;;;7.35;;
60996;SDS011;46877;55.054;73.306;2022-07-06T10:20:58;13.50;;;9.30;;
60996;SDS011;46877;55.054;73.306;2022-07-06T10:23:25;12.07;;;7.93;;
60996;SDS011;46877;55.054;73.306;2022-07-06T10:25:54;11.88;;;8.35;;
60996;SDS011;46877;55.054;73.306;2022-07-06T10:28:21;12.60;;;7.97;;
60996;SDS011;46877;55.054;73.306;2022-07-06T10:30:52;21.60;;;10.50;;
60996;SDS011;46877;55.054;73.306;2022-07-06T10:33:19;16.95;;;10.80;;
60996;SDS011;46877;55.054;73.306;2022-07-06T10:35:52;20.80;;;10.95;;
60996;SDS011;46877;55.054;73.306;2022-07-06T10:38:30;15.53;;;11.20;;
60996;SDS011;46877;55.054;73.306;2022-07-06T10:41:02;18.90;;;11.82;;
60996;SDS011;46877;55.054;73.306;2022-07-06T10:43:33;15.77;;;10.82;;
60996;SDS011;46877;55.054;73.306;2022-07-06T10:46:05;16.25;;;11.93;;
60996;SDS011;46877;55.054;73.306;2022-07-06T10:48:35;18.48;;;11.45;;
60996;SDS011;46877;55.054;73.306;2022-07-06T10:51:01;16.48;;;11.23;;
60996;SDS011;46877;55.054;73.306;2022-07-06T10:53:40;18.85;;;11.57;;
60996;SDS011;46877;55.054;73.306;2022-07-06T10:56:16;17.25;;;11.48;;
60996;SDS011;46877;55.054;73.306;2022-07-06T10:58:49;14.43;;;11.30;;
60996;SDS011;46877;55.054;73.306;2022-07-06T11:01:17;14.43;;;11.07;;
60996;SDS011;46877;55.054;73.306;2022-07-06T11:04:16;16.23;;;11.02;;
60996;SDS011;46877;55.054;73.306;2022-07-06T11:09:03;17.38;;;11.45;;
60996;SDS011;46877;55.054;73.306;2022-07-06T11:16:39;14.93;;;10.32;;
60996;SDS011;46877;55.054;73.306;2022-07-06T11:19:09;15.02;;;10.38;;
60996;SDS011;46877;55.054;73.306;2022-07-06T11:21:57;13.10;;;10.60;;
60996;SDS011;46877;55.054;73.306;2022-07-06T11:24:27;14.88;;;10.60;;
60996;SDS011;46877;55.054;73.306;2022-07-06T11:26:54;13.52;;;10.68;;
60996;SDS011;46877;55.054;73.306;2022-07-06T11:29:21;13.48;;;10.57;;
60996;SDS011;46877;55.054;73.306;2022-07-06T11:31:49;14.75;;;10.70;;
60996;SDS011;46877;55.054;73.306;2022-07-06T11:34:22;16.05;;;10.73;;
60996;SDS011;46877;55.054;73.306;2022-07-06T11:36:49;12.20;;;10.45;;
60996;SDS011;46877;55.054;73.306;2022-07-06T11:39:15;15.25;;;10.45;;
60996;SDS011;46877;55.054;73.306;2022-07-06T11:41:41;16.92;;;10.40;;
60996;SDS011;46877;55.054;73.306;2022-07-06T11:44:53;15.00;;;9.82;;
60996;SDS011;46877;55.054;73.306;2022-07-06T11:47:20;12.00;;;10.10;;
60996;SDS011;46877;55.054;73.306;2022-07-06T11:49:49;13.32;;;10.13;;
60996;SDS011;46877;55.054;73.306;2022-07-06T11:52:21;12.80;;;10.02;;
60996;SDS011;46877;55.054;73.306;2022-07-06T11:54:49;12.98;;;9.70;;
60996;SDS011;46877;55.054;73.306;2022-07-06T11:57:22;12.50;;;10.15;;
60996;SDS011;46877;55.054;73.306;2022-07-06T11:59:49;11.85;;;9.63;;
60996;SDS011;46877;55.054;73.306;2022-07-06T12:02:17;13.57;;;9.85;;
60996;SDS011;46877;55.054;73.306;2022-07-06T12:04:44;12.82;;;9.75;;
60996;SDS011;46877;55.054;73.306;2022-07-06T12:07:12;12.85;;;8.90;;
60996;SDS011;46877;55.054;73.306;2022-07-06T12:09:40;13.02;;;10.00;;
60996;SDS011;46877;55.054;73.306;2022-07-06T12:12:06;10.68;;;8.65;;
60996;SDS011;46877;55.054;73.306;2022-07-06T12:14:34;11.00;;;9.30;;
60996;SDS011;46877;55.054;73.306;2022-07-06T12:17:05;12.52;;;9.82;;
60996;SDS011;46877;55.054;73.306;2022-07-06T12:19:31;16.48;;;9.10;;
60996;SDS011;46877;55.054;73.306;2022-07-06T12:21:58;12.80;;;9.57;;
60996;SDS011;46877;55.054;73.306;2022-07-06T12:24:25;15.77;;;9.10;;
60996;SDS011;46877;55.054;73.306;2022-07-06T12:26:54;11.77;;;8.57;;
60996;SDS011;46877;55.054;73.306;2022-07-06T12:29:20;13.55;;;8.70;;
60996;SDS011;46877;55.054;73.306;2022-07-06T12:34:14;13.93;;;8.32;;
60996;SDS011;46877;55.054;73.306;2022-07-06T12:36:44;10.85;;;7.90;;
60996;SDS011;46877;55.054;73.306;2022-07-06T12:39:12;10.95;;;7.60;;
60996;SDS011;46877;55.054;73.306;2022-07-06T12:41:43;9.10;;;7.47;;
60996;SDS011;46877;55.054;73.306;2022-07-06T12:44:09;10.35;;;7.35;;
60996;SDS011;46877;55.054;73.306;2022-07-06T12:46:37;9.90;;;7.47;;
60996;SDS011;46877;55.054;73.306;2022-07-06T12:59:29;8.93;;;7.22;;
60996;SDS011;46877;55.054;73.306;2022-07-06T13:02:00;9.02;;;6.82;;
60996;SDS011;46877;55.054;73.306;2022-07-06T13:04:27;9.75;;;7.15;;
60996;SDS011;46877;55.054;73.306;2022-07-06T13:06:54;7.70;;;6.50;;
60996;SDS011;46877;55.054;73.306;2022-07-06T13:09:20;8.77;;;6.68;;
60996;SDS011;46877;55.054;73.306;2022-07-06T13:11:56;8.63;;;6.57;;
60996;SDS011;46877;55.054;73.306;2022-07-06T13:14:23;8.07;;;6.25;;
60996;SDS011;46877;55.054;73.306;2022-07-06T13:16:49;9.40;;;6.20;;
60996;SDS011;46877;55.054;73.306;2022-07-06T13:19:15;8.13;;;6.22;;
60996;SDS011;46877;55.054;73.306;2022-07-06T13:21:42;11.82;;;6.30;;
60996;SDS011;46877;55.054;73.306;2022-07-06T13:24:10;9.05;;;6.35;;
60996;SDS011;46877;55.054;73.306;2022-07-06T13:26:42;7.38;;;6.18;;
60996;SDS011;46877;55.054;73.306;2022-07-06T13:29:18;7.80;;;6.40;;
60996;SDS011;46877;55.054;73.306;2022-07-06T13:31:44;8.32;;;6.40;;
60996;SDS011;46877;55.054;73.306;2022-07-06T13:34:10;9.10;;;5.53;;
60996;SDS011;46877;55.054;73.306;2022-07-06T13:36:39;9.77;;;6.20;;
60996;SDS011;46877;55.054;73.306;2022-07-06T13:39:05;9.95;;;6.20;;
60996;SDS011;46877;55.054;73.306;2022-07-06T13:41:32;13.20;;;6.07;;
60996;SDS011;46877;55.054;73.306;2022-07-06T13:43:58;10.20;;;6.00;;
60996;SDS011;46877;55.054;73.306;2022-07-06T13:46:27;7.95;;;5.55;;
60996;SDS011;46877;55.054;73.306;2022-07-06T13:48:54;6.50;;;5.38;;
60996;SDS011;46877;55.054;73.306;2022-07-06T13:51:25;6.68;;;5.25;;
60996;SDS011;46877;55.054;73.306;2022-07-06T13:53:53;8.00;;;5.60;;
60996;SDS011;46877;55.054;73.306;2022-07-06T13:56:19;7.07;;;5.57;;
60996;SDS011;46877;55.054;73.306;2022-07-06T13:58:56;7.80;;;5.30;;
60996;SDS011;46877;55.054;73.306;2022-07-06T14:01:22;9.07;;;5.80;;
60996;SDS011;46877;55.054;73.306;2022-07-06T14:03:48;7.47;;;4.55;;
60996;SDS011;46877;55.054;73.306;2022-07-06T14:06:15;8.60;;;5.68;;
60996;SDS011;46877;55.054;73.306;2022-07-06T14:08:42;5.88;;;4.70;;
60996;SDS011;46877;55.054;73.306;2022-07-06T14:11:08;6.45;;;5.00;;
60996;SDS011;46877;55.054;73.306;2022-07-06T14:13:35;7.03;;;4.68;;
60996;SDS011;46877;55.054;73.306;2022-07-06T14:16:01;5.63;;;4.38;;
60996;SDS011;46877;55.054;73.306;2022-07-06T14:18:28;7.35;;;5.05;;
60996;SDS011;46877;55.054;73.306;2022-07-06T14:20:59;5.70;;;4.38;;
60996;SDS011;46877;55.054;73.306;2022-07-06T14:23:34;6.80;;;4.60;;
60996;SDS011;46877;55.054;73.306;2022-07-06T14:26:00;6.18;;;4.80;;
60996;SDS011;46877;55.054;73.306;2022-07-06T14:28:26;7.07;;;5.05;;
60996;SDS011;46877;55.054;73.306;2022-07-06T14:30:52;5.93;;;4.70;;
60996;SDS011;46877;55.054;73.306;2022-07-06T14:33:19;9.77;;;4.40;;
60996;SDS011;46877;55.054;73.306;2022-07-06T14:35:46;5.53;;;4.28;;
60996;SDS011;46877;55.054;73.306;2022-07-06T14:38:13;5.38;;;4.35;;
60996;SDS011;46877;55.054;73.306;2022-07-06T14:40:40;5.80;;;3.63;;
60996;SDS011;46877;55.054;73.306;2022-07-06T14:43:08;6.72;;;4.72;;
60996;SDS011;46877;55.054;73.306;2022-07-06T14:45:34;4.57;;;3.47;;
60996;SDS011;46877;55.054;73.306;2022-07-06T14:48:03;6.60;;;4.10;;
60996;SDS011;46877;55.054;73.306;2022-07-06T14:50:31;6.20;;;4.05;;
60996;SDS011;46877;55.054;73.306;2022-07-06T14:52:57;5.27;;;4.40;;
60996;SDS011;46877;55.054;73.306;2022-07-06T14:55:33;5.57;;;3.70;;
60996;SDS011;46877;55.054;73.306;2022-07-06T14:57:59;5.35;;;4.07;;
60996;SDS011;46877;55.054;73.306;2022-07-06T15:00:30;5.63;;;4.50;;
60996;SDS011;46877;55.054;73.306;2022-07-06T15:02:56;8.23;;;4.17;;
60996;SDS011;46877;55.054;73.306;2022-07-06T15:05:23;5.50;;;3.63;;